Time;durP1;ratioP1;P1;durP2;ratioP2;P2;SDS_P1;SDS_P2;PMS_P1;PMS_P2;Temp;Humidity;BMP_temperature;BMP_pressure;BME280_temperature;BME280_humidity;BME280_pressure;Samples;Min_cycle;Max_cycle;Signal;HPM_P1;HPM_P2
2022/08/20 00:02:04;;;;;;;0.50;0.30;;;21.90;1.00;;;;;;5115820;28;20888;-70
2022/08/20 00:04:31;;;;;;;0.70;0.30;;;21.90;1.00;;;;;;5118991;28;20451;-70
2022/08/20 00:06:59;;;;;;;0.50;0.30;;;21.80;1.00;;;;;;5115496;28;20452;-70
2022/08/20 00:09:25;;;;;;;0.50;0.30;;;21.70;99.90;;;;;;5123408;28;20444;-69
2022/08/20 00:11:52;;;;;;;1.27;0.30;;;21.70;1.00;;;;;;5118482;28;20480;-70
2022/08/20 00:14:20;;;;;;;0.57;0.30;;;21.70;1.00;;;;;;5117250;28;20425;-70
2022/08/20 00:16:46;;;;;;;0.77;0.37;;;21.80;99.90;;;;;;5114954;28;20494;-69
2022/08/20 00:19:16;;;;;;;0.60;0.30;;;21.80;99.90;;;;;;5117319;28;20440;-69
2022/08/20 00:21:43;;;;;;;0.60;0.30;;;21.70;99.90;;;;;;5114839;28;20476;-69
2022/08/20 00:24:10;;;;;;;0.40;0.20;;;21.70;1.00;;;;;;5116960;28;20483;-69
2022/08/20 00:26:37;;;;;;;0.80;0.30;;;21.60;1.00;;;;;;5114259;28;20496;-69
2022/08/20 00:29:04;;;;;;;0.50;0.30;;;21.70;1.00;;;;;;5116430;28;20448;-69
2022/08/20 00:31:31;;;;;;;0.40;0.30;;;21.60;1.00;;;;;;5114059;28;20510;-70
2022/08/20 00:33:58;;;;;;;0.57;0.30;;;21.60;48.20;;;;;;5116418;28;20754;-70
2022/08/20 00:36:26;;;;;;;0.50;0.40;;;21.50;99.90;;;;;;5114818;28;20484;-69
2022/08/20 00:38:53;;;;;;;0.50;0.27;;;21.40;99.90;;;;;;5116642;28;20502;-69
2022/08/20 00:41:25;;;;;;;0.50;0.30;;;21.40;87.30;;;;;;5117339;28;20456;-69
2022/08/20 00:44:06;;;;;;;0.40;0.30;;;21.50;1.00;;;;;;5120913;28;20445;-70
2022/08/20 00:46:34;;;;;;;0.30;0.20;;;21.50;1.00;;;;;;5118766;28;20544;-70
2022/08/20 00:49:04;;;;;;;1.00;0.30;;;21.50;1.00;;;;;;5120741;28;20464;-69
2022/08/20 00:51:38;;;;;;;0.40;0.20;;;21.60;1.00;;;;;;5118868;28;20460;-70
2022/08/20 00:54:11;;;;;;;0.77;0.27;;;21.60;1.00;;;;;;5120665;28;20444;-70
2022/08/20 00:56:39;;;;;;;0.30;0.20;;;21.60;58.20;;;;;;5118959;28;20909;-69
2022/08/20 00:59:12;;;;;;;0.40;0.23;;;21.60;4.50;;;;;;5120440;28;20448;-70
2022/08/20 01:01:40;;;;;;;0.50;0.30;;;21.70;1.00;;;;;;5118119;28;20494;-69
2022/08/20 01:04:09;;;;;;;0.50;0.30;;;21.70;99.90;;;;;;5120202;28;20494;-69
2022/08/20 01:06:38;;;;;;;0.53;0.30;;;21.70;1.00;;;;;;5117549;28;20479;-69
2022/08/20 01:09:06;;;;;;;0.47;0.30;;;21.70;1.00;;;;;;5120250;28;20752;-70
2022/08/20 01:11:35;;;;;;;0.40;0.30;;;21.90;99.90;;;;;;5117743;28;20523;-70
2022/08/20 01:14:14;;;;;;;0.60;0.43;;;21.80;99.90;;;;;;5120653;28;20510;-69
2022/08/20 01:16:44;;;;;;;0.47;0.30;;;21.80;99.90;;;;;;5117481;28;20582;-70
2022/08/20 01:19:14;;;;;;;0.60;0.30;;;21.70;1.00;;;;;;5119854;28;20455;-70
2022/08/20 01:21:43;;;;;;;0.40;0.20;;;21.70;1.00;;;;;;5118554;28;20715;-70
2022/08/20 01:24:19;;;;;;;0.50;0.40;;;21.70;1.00;;;;;;5119821;28;20444;-70
2022/08/20 01:26:49;;;;;;;0.40;0.30;;;21.70;1.00;;;;;;5118064;28;20531;-70
2022/08/20 01:29:18;;;;;;;0.60;0.30;;;21.70;1.00;;;;;;5118557;28;20449;-70
2022/08/20 01:31:46;;;;;;;1.00;0.30;;;21.70;1.00;;;;;;5116367;28;20456;-70
2022/08/20 01:34:16;;;;;;;0.50;0.30;;;21.80;1.00;;;;;;5119569;28;20538;-70
2022/08/20 01:36:45;;;;;;;0.40;0.30;;;21.80;1.00;;;;;;5117141;28;20935;-69
2022/08/20 01:39:16;;;;;;;1.63;0.30;;;21.90;99.90;;;;;;5119306;28;20484;-69
2022/08/20 01:41:55;;;;;;;0.40;0.30;;;21.90;99.90;;;;;;5117793;28;20518;-70
2022/08/20 01:44:23;;;;;;;0.97;0.33;;;21.90;99.90;;;;;;5118364;28;20436;-70
2022/08/20 01:46:51;;;;;;;0.53;0.37;;;21.80;99.90;;;;;;5117569;28;20956;-69
2022/08/20 01:49:21;;;;;;;0.40;0.30;;;21.80;99.90;;;;;;5118370;28;20533;-70
2022/08/20 01:51:52;;;;;;;0.47;0.30;;;21.70;1.00;;;;;;5115698;28;20452;-70
2022/08/20 01:54:20;;;;;;;0.40;0.30;;;21.60;2.20;;;;;;5119086;28;20452;-70
2022/08/20 01:56:55;;;;;;;0.40;0.20;;;21.70;99.90;;;;;;5117587;28;20826;-69
2022/08/20 01:59:31;;;;;;;0.50;0.30;;;21.70;1.00;;;;;;5118391;28;20448;-69
2022/08/20 02:02:01;;;;;;;0.47;0.30;;;21.70;1.00;;;;;;5111458;28;20568;-69
2022/08/20 02:04:28;;;;;;;0.50;0.30;;;21.80;1.00;;;;;;5117729;28;20448;-70
2022/08/20 02:06:58;;;;;;;0.40;0.27;;;21.80;1.00;;;;;;5116982;28;20585;-70
2022/08/20 02:09:27;;;;;;;0.40;0.20;;;21.80;1.00;;;;;;5118718;28;20972;-70
2022/08/20 02:11:56;;;;;;;0.43;0.30;;;21.80;1.00;;;;;;5116589;28;20480;-70
2022/08/20 02:14:24;;;;;;;0.40;0.30;;;21.70;1.00;;;;;;5118865;28;20445;-70
2022/08/20 02:16:51;;;;;;;0.80;0.30;;;21.70;99.90;;;;;;5115232;28;20480;-70
2022/08/20 02:19:21;;;;;;;0.50;0.30;;;21.70;99.90;;;;;;5118713;28;20448;-70
2022/08/20 02:21:53;;;;;;;1.33;0.23;;;21.60;99.90;;;;;;5115737;28;20457;-69
2022/08/20 02:24:20;;;;;;;0.47;0.30;;;21.60;1.00;;;;;;5119429;28;20501;-70
2022/08/20 02:26:47;;;;;;;0.40;0.20;;;21.60;1.00;;;;;;5117654;28;20494;-70
2022/08/20 02:29:16;;;;;;;0.43;0.30;;;21.70;99.90;;;;;;5118235;28;20445;-70
2022/08/20 02:31:47;;;;;;;0.60;0.40;;;21.70;99.90;;;;;;5114283;28;20501;-70
2022/08/20 02:34:15;;;;;;;0.40;0.20;;;21.70;99.90;;;;;;5117877;28;20445;-70
2022/08/20 02:36:44;;;;;;;1.20;0.23;;;21.80;99.90;;;;;;5115706;28;20923;-70
2022/08/20 02:39:13;;;;;;;0.50;0.30;;;21.70;99.90;;;;;;5117664;28;21098;-70
2022/08/20 02:41:40;;;;;;;1.93;0.40;;;21.70;99.90;;;;;;5115139;28;20444;-72
2022/08/20 02:44:08;;;;;;;0.50;0.30;;;21.70;1.00;;;;;;5118167;28;20915;-69
2022/08/20 02:46:37;;;;;;;0.30;0.20;;;21.60;1.00;;;;;;5114634;28;20506;-69
2022/08/20 02:49:04;;;;;;;0.40;0.30;;;21.50;15.30;;;;;;5118021;28;20452;-69
2022/08/20 02:51:32;;;;;;;0.70;0.30;;;21.50;99.90;;;;;;5118024;28;20505;-70
2022/08/20 02:53:59;;;;;;;0.50;0.40;;;21.60;99.90;;;;;;5118373;28;20788;-70
2022/08/20 02:56:26;;;;;;;0.60;0.30;;;21.80;1.00;;;;;;5116557;28;20732;-69
2022/08/20 02:58:54;;;;;;;1.50;0.40;;;21.80;99.90;;;;;;5118024;28;20458;-69
2022/08/20 03:01:21;;;;;;;0.60;0.40;;;21.80;1.00;;;;;;5116107;28;20509;-69
2022/08/20 03:03:49;;;;;;;0.50;0.30;;;21.70;99.90;;;;;;5117678;28;20505;-69
2022/08/20 03:06:16;;;;;;;0.50;0.30;;;21.70;1.00;;;;;;5117315;28;20521;-70
2022/08/20 03:08:44;;;;;;;0.40;0.30;;;21.60;1.00;;;;;;5116351;28;20517;-69
2022/08/20 03:11:12;;;;;;;0.57;0.30;;;21.60;42.70;;;;;;5117764;28;20580;-69
2022/08/20 03:13:39;;;;;;;1.07;0.30;;;21.60;99.90;;;;;;5116915;28;20453;-70
2022/08/20 03:16:07;;;;;;;3.97;0.37;;;21.60;1.00;;;;;;5117962;27;20768;-72
2022/08/20 03:18:37;;;;;;;0.50;0.30;;;21.60;1.00;;;;;;5116235;28;20480;-69
2022/08/20 03:21:08;;;;;;;0.80;0.40;;;21.50;99.90;;;;;;5118041;28;20441;-69
2022/08/20 03:23:36;;;;;;;0.50;0.40;;;21.50;99.90;;;;;;5118037;28;20460;-70
2022/08/20 03:26:04;;;;;;;0.50;0.30;;;21.30;1.00;;;;;;5117770;28;20451;-70
2022/08/20 03:28:31;;;;;;;0.50;0.30;;;21.40;1.00;;;;;;5116767;28;20797;-69
2022/08/20 03:30:59;;;;;;;0.50;0.30;;;21.30;1.00;;;;;;5117808;28;20576;-70
2022/08/20 03:33:27;;;;;;;0.60;0.30;;;21.30;1.00;;;;;;5115784;28;20452;-69
2022/08/20 03:35:54;;;;;;;0.50;0.40;;;21.30;14.70;;;;;;5117380;28;20502;-72
2022/08/20 03:38:23;;;;;;;0.50;0.40;;;21.40;5.20;;;;;;5115417;28;20480;-72
2022/08/20 03:40:51;;;;;;;0.50;0.30;;;21.50;1.00;;;;;;5116373;28;20453;-73
2022/08/20 03:43:21;;;;;;;0.80;0.40;;;21.50;1.00;;;;;;5114913;28;20457;-72
2022/08/20 03:45:48;;;;;;;0.53;0.30;;;21.60;1.00;;;;;;5116856;28;20448;-72
2022/08/20 03:48:18;;;;;;;1.63;0.50;;;21.60;1.00;;;;;;5113056;27;20509;-73
2022/08/20 03:50:46;;;;;;;0.57;0.40;;;21.60;1.00;;;;;;5116923;28;20940;-72
2022/08/20 03:53:14;;;;;;;0.50;0.40;;;21.50;1.00;;;;;;5115660;28;20456;-73
2022/08/20 03:55:45;;;;;;;0.70;0.50;;;21.50;1.00;;;;;;5116941;28;20491;-73
2022/08/20 03:58:12;;;;;;;0.60;0.40;;;21.40;5.50;;;;;;5115948;28;20484;-73
2022/08/20 04:00:43;;;;;;;0.63;0.40;;;21.50;1.00;;;;;;5115222;28;20441;-73
2022/08/20 04:03:11;;;;;;;0.50;0.40;;;21.40;28.60;;;;;;5113834;28;20445;-73
2022/08/20 04:05:39;;;;;;;0.60;0.60;;;21.30;99.90;;;;;;5116323;28;20544;-73
2022/08/20 04:08:08;;;;;;;0.57;0.50;;;21.30;99.90;;;;;;5115635;28;20452;-73
2022/08/20 04:10:35;;;;;;;0.60;0.40;;;21.20;99.90;;;;;;5116245;28;20476;-73
2022/08/20 04:13:05;;;;;;;0.57;0.50;;;21.10;99.90;;;;;;5114180;28;20452;-73
2022/08/20 04:15:34;;;;;;;0.83;0.47;;;21.10;99.90;;;;;;5115717;28;20880;-73
2022/08/20 04:18:01;;;;;;;0.50;0.40;;;21.10;99.90;;;;;;5114767;28;20480;-73
2022/08/20 04:20:28;;;;;;;0.60;0.40;;;21.00;1.00;;;;;;5116615;28;20762;-73
2022/08/20 04:22:57;;;;;;;0.70;0.50;;;21.00;1.00;;;;;;5115612;28;20456;-73
2022/08/20 04:25:24;;;;;;;0.57;0.47;;;20.90;1.00;;;;;;5117548;28;20462;-73
2022/08/20 04:27:51;;;;;;;0.50;0.40;;;21.00;1.00;;;;;;5114750;28;20539;-73
2022/08/20 04:30:21;;;;;;;0.70;0.60;;;21.10;1.00;;;;;;5116676;28;20953;-73
2022/08/20 04:32:48;;;;;;;0.80;0.50;;;21.10;1.00;;;;;;5114966;28;20452;-73
2022/08/20 04:35:16;;;;;;;0.60;0.43;;;21.10;1.00;;;;;;5117011;28;20457;-73
2022/08/20 04:37:44;;;;;;;0.70;0.60;;;21.10;1.00;;;;;;5113731;28;21008;-74
2022/08/20 04:43:00;;;;;;;0.87;0.60;;;21.40;1.00;;;;;;5115003;28;20428;-73
2022/08/20 04:45:29;;;;;;;0.70;0.50;;;21.30;1.00;;;;;;5116533;28;20471;-74
2022/08/20 04:47:56;;;;;;;0.90;0.67;;;21.30;1.00;;;;;;5114172;28;20488;-73
2022/08/20 04:50:23;;;;;;;0.70;0.60;;;21.40;1.00;;;;;;5115936;28;20453;-73
2022/08/20 04:52:50;;;;;;;1.10;0.60;;;21.40;1.00;;;;;;5114991;28;20452;-73
2022/08/20 04:55:18;;;;;;;0.90;0.60;;;21.30;1.00;;;;;;5116053;28;20448;-73
2022/08/20 04:57:45;;;;;;;0.80;0.60;;;21.20;1.00;;;;;;5115579;28;20491;-72
2022/08/20 05:00:15;;;;;;;0.80;0.57;;;21.10;1.00;;;;;;5116497;28;20437;-72
2022/08/20 05:02:44;;;;;;;0.70;0.53;;;21.10;1.00;;;;;;5115090;28;20740;-72
2022/08/20 05:05:12;;;;;;;0.70;0.50;;;21.00;1.00;;;;;;5116427;28;20509;-72
2022/08/20 05:07:42;;;;;;;0.60;0.50;;;20.90;1.00;;;;;;5116432;28;20459;-73
2022/08/20 05:10:12;;;;;;;0.70;0.50;;;20.90;1.00;;;;;;5114627;28;20492;-73
2022/08/20 05:12:40;;;;;;;0.60;0.40;;;20.80;1.00;;;;;;5116312;28;20441;-72
2022/08/20 05:15:08;;;;;;;0.93;0.50;;;20.80;1.00;;;;;;5114086;28;20457;-73
2022/08/20 05:17:35;;;;;;;0.90;0.60;;;20.90;1.00;;;;;;5115735;28;20954;-74
2022/08/20 05:20:05;;;;;;;0.70;0.60;;;20.90;1.00;;;;;;5113581;28;20917;-73
2022/08/20 05:22:32;;;;;;;0.70;0.50;;;21.00;1.00;;;;;;5116570;28;20445;-73
2022/08/20 05:25:00;;;;;;;0.60;0.60;;;21.20;1.00;;;;;;5115027;28;20488;-73
2022/08/20 05:27:27;;;;;;;1.00;0.50;;;21.30;1.00;;;;;;5119659;28;20533;-73
2022/08/20 05:29:55;;;;;;;0.90;0.60;;;21.30;1.00;;;;;;5120138;28;20452;-73
2022/08/20 05:32:25;;;;;;;0.90;0.50;;;21.30;1.00;;;;;;5120312;28;20907;-72
2022/08/20 05:34:52;;;;;;;0.70;0.60;;;21.20;1.00;;;;;;5117826;28;20965;-72
2022/08/20 05:37:21;;;;;;;0.70;0.60;;;21.30;1.00;;;;;;5119715;28;20472;-72
2022/08/20 05:39:48;;;;;;;0.90;0.60;;;21.40;1.00;;;;;;5117972;28;20456;-72
2022/08/20 05:42:16;;;;;;;0.80;0.60;;;21.30;1.00;;;;;;5119582;28;20441;-73
2022/08/20 05:44:45;;;;;;;0.60;0.50;;;21.10;1.00;;;;;;5118739;28;20457;-73
2022/08/20 05:47:13;;;;;;;0.87;0.73;;;21.10;1.00;;;;;;5119848;28;20803;-73
2022/08/20 05:49:40;;;;;;;0.80;0.60;;;21.10;1.00;;;;;;5116693;28;20943;-72
2022/08/20 05:52:07;;;;;;;0.80;0.60;;;21.00;1.00;;;;;;5119349;28;20533;-72
2022/08/20 05:54:37;;;;;;;1.40;0.60;;;21.00;1.00;;;;;;5116832;28;20444;-72
2022/08/20 05:57:04;;;;;;;0.77;0.60;;;21.10;1.00;;;;;;5119385;28;20441;-72
2022/08/20 05:59:33;;;;;;;0.90;0.60;;;21.20;1.00;;;;;;5117439;28;20444;-72
2022/08/20 06:02:00;;;;;;;0.90;0.60;;;21.30;1.00;;;;;;5118967;28;20449;-72
2022/08/20 06:04:27;;;;;;;0.80;0.60;;;21.40;1.00;;;;;;5117156;28;20444;-72
2022/08/20 06:06:56;;;;;;;0.67;0.67;;;21.30;1.00;;;;;;5118648;28;20528;-73
2022/08/20 06:09:24;;;;;;;1.07;0.60;;;21.40;1.00;;;;;;5115734;28;20444;-73
2022/08/20 06:11:53;;;;;;;0.80;0.60;;;21.50;1.00;;;;;;5118654;28;20529;-72
2022/08/20 06:14:21;;;;;;;0.87;0.70;;;21.40;1.00;;;;;;5117201;28;20484;-72
2022/08/20 06:16:48;;;;;;;0.60;0.57;;;21.30;1.00;;;;;;5118977;28;20453;-74
2022/08/20 06:19:15;;;;;;;0.80;0.60;;;21.30;1.00;;;;;;5118967;28;20476;-73
2022/08/20 06:21:42;;;;;;;0.87;0.60;;;21.40;1.00;;;;;;5118417;28;20451;-73
2022/08/20 06:24:09;;;;;;;0.80;0.60;;;21.80;99.90;;;;;;5118760;28;20448;-73
2022/08/20 06:26:36;;;;;;;0.70;0.50;;;21.80;99.90;;;;;;5115628;28;20732;-73
2022/08/20 06:29:06;;;;;;;0.97;0.73;;;21.80;99.90;;;;;;5116831;28;20459;-73
2022/08/20 06:31:38;;;;;;;0.83;0.60;;;21.90;99.90;;;;;;5116534;28;20539;-73
2022/08/20 06:34:06;;;;;;;0.80;0.60;;;21.90;99.90;;;;;;5118115;28;20453;-73
2022/08/20 06:36:33;;;;;;;1.20;0.70;;;22.00;99.90;;;;;;5116017;28;20547;-73
2022/08/20 06:39:00;;;;;;;0.90;0.60;;;22.00;99.90;;;;;;5117732;28;20469;-74
2022/08/20 06:41:27;;;;;;;0.67;0.57;;;22.00;99.90;;;;;;5115892;28;20502;-74
2022/08/20 06:43:54;;;;;;;0.87;0.60;;;22.00;99.90;;;;;;5118372;28;20441;-74
2022/08/20 06:46:23;;;;;;;0.87;0.60;;;21.90;99.90;;;;;;5116335;28;20760;-74
2022/08/20 06:48:51;;;;;;;0.80;0.60;;;21.90;99.90;;;;;;5118475;28;20440;-75
2022/08/20 06:51:19;;;;;;;2.50;0.60;;;22.00;99.90;;;;;;5117071;28;20452;-74
2022/08/20 06:53:46;;;;;;;0.83;0.70;;;22.00;99.90;;;;;;5118427;28;20469;-73
2022/08/20 06:56:13;;;;;;;0.80;0.57;;;22.00;99.90;;;;;;5116873;28;20458;-73
2022/08/20 06:58:40;;;;;;;0.60;0.53;;;22.10;1.00;;;;;;5116552;28;20476;-73
2022/08/20 07:01:08;;;;;;;0.90;0.60;;;22.20;1.00;;;;;;5112853;28;20461;-73
2022/08/20 07:03:37;;;;;;;0.87;0.70;;;22.10;1.00;;;;;;5117451;28;20531;-73
2022/08/20 07:06:04;;;;;;;0.77;0.60;;;22.20;1.00;;;;;;5116412;28;20939;-73
2022/08/20 07:08:31;;;;;;;0.77;0.60;;;22.00;38.30;;;;;;5118395;28;20488;-73
2022/08/20 07:10:59;;;;;;;0.70;0.60;;;22.00;99.90;;;;;;5115347;28;20541;-72
2022/08/20 07:13:27;;;;;;;0.80;0.70;;;21.80;99.90;;;;;;5117024;28;20441;-73
2022/08/20 07:15:54;;;;;;;0.73;0.60;;;22.00;99.90;;;;;;5115809;28;20467;-73
2022/08/20 07:18:22;;;;;;;1.30;0.60;;;21.90;99.90;;;;;;5116991;28;20855;-72
2022/08/20 07:20:53;;;;;;;1.17;0.80;;;21.80;99.90;;;;;;5115139;28;20246;-73
2022/08/20 07:23:20;;;;;;;0.83;0.60;;;21.90;99.90;;;;;;5117446;28;20449;-73
2022/08/20 07:25:48;;;;;;;0.83;0.60;;;22.10;99.90;;;;;;5113817;28;20545;-73
2022/08/20 07:28:18;;;;;;;0.80;0.50;;;22.30;1.00;;;;;;5116311;28;20955;-73
2022/08/20 07:33:31;;;;;;;1.40;0.60;;;22.10;99.90;;;;;;5115356;28;20428;-71
2022/08/20 07:36:02;;;;;;;0.53;0.50;;;22.10;99.90;;;;;;5114481;28;20808;-71
2022/08/20 07:38:31;;;;;;;0.70;0.53;;;22.00;99.90;;;;;;5116040;28;20481;-71
2022/08/20 07:41:01;;;;;;;0.93;0.73;;;22.30;99.90;;;;;;5101449;28;20550;-70
2022/08/20 07:43:28;;;;;;;0.60;0.50;;;22.40;10.60;;;;;;5096242;28;20452;-71
2022/08/20 07:45:59;;;;;;;1.00;0.50;;;22.50;1.00;;;;;;5094767;28;20500;-71
2022/08/20 07:48:27;;;;;;;0.80;0.60;;;22.50;1.00;;;;;;5096931;28;20470;-73
2022/08/20 07:50:55;;;;;;;0.60;0.50;;;22.60;99.90;;;;;;5093081;28;20915;-72
2022/08/20 07:53:23;;;;;;;0.87;0.60;;;22.70;3.40;;;;;;5096361;28;20445;-72
2022/08/20 07:55:50;;;;;;;0.90;0.60;;;22.90;99.90;;;;;;5094764;28;20481;-72
2022/08/20 07:58:20;;;;;;;3.17;0.60;;;23.10;1.00;;;;;;5096973;28;20525;-72
2022/08/20 08:00:47;;;;;;;0.80;0.60;;;23.20;99.90;;;;;;5095620;28;20487;-72
2022/08/20 08:03:14;;;;;;;1.27;0.50;;;23.40;1.00;;;;;;5100560;28;20958;-72
2022/08/20 08:05:45;;;;;;;1.90;0.60;;;23.50;99.90;;;;;;5093365;28;20575;-72
2022/08/20 08:08:16;;;;;;;0.60;0.60;;;23.60;11.30;;;;;;5098511;28;20446;-72
2022/08/20 08:10:47;;;;;;;1.00;0.65;;;23.80;1.00;;;;;;5095165;28;20775;-73
2022/08/20 08:13:14;;;;;;;0.70;0.70;;;23.90;99.90;;;;;;5097259;28;20604;-72
2022/08/20 08:15:45;;;;;;;0.80;0.60;;;23.70;1.00;;;;;;5095645;28;20489;-72
2022/08/20 08:18:17;;;;;;;0.70;0.60;;;23.40;1.00;;;;;;5096109;28;20484;-72
2022/08/20 08:20:45;;;;;;;0.77;0.57;;;23.40;99.90;;;;;;5095381;28;20479;-73
2022/08/20 08:23:12;;;;;;;0.60;0.50;;;23.60;1.00;;;;;;5095414;28;20473;-73
2022/08/20 08:25:41;;;;;;;0.70;0.60;;;23.90;1.00;;;;;;5095047;28;20501;-73
2022/08/20 08:28:10;;;;;;;0.60;0.40;;;24.20;99.90;;;;;;5093458;28;20449;-73
2022/08/20 08:30:39;;;;;;;0.70;0.50;;;24.30;1.00;;;;;;5092439;28;20457;-73
2022/08/20 08:35:50;;;;;;;0.70;0.50;;;24.40;1.00;;;;;;5092561;28;20920;-73
2022/08/20 08:38:18;;;;;;;1.10;0.60;;;24.60;1.00;;;;;;5095524;28;20469;-73
2022/08/20 08:40:45;;;;;;;0.67;0.50;;;24.70;1.00;;;;;;5093369;28;20915;-73
2022/08/20 08:43:19;;;;;;;1.37;0.70;;;24.80;1.00;;;;;;5092742;28;20506;-73
2022/08/20 08:45:53;;;;;;;1.10;0.67;;;24.80;99.90;;;;;;5092805;28;20457;-73
2022/08/20 08:48:20;;;;;;;0.60;0.50;;;24.60;99.90;;;;;;5094438;28;21026;-73
2022/08/20 08:50:51;;;;;;;0.60;0.50;;;24.70;99.90;;;;;;5092487;28;20806;-73
2022/08/20 08:53:22;;;;;;;1.53;0.60;;;24.50;99.90;;;;;;5094175;28;20903;-73
2022/08/20 08:55:49;;;;;;;0.90;0.70;;;24.60;99.90;;;;;;5091782;28;20567;-73
2022/08/20 08:58:17;;;;;;;0.67;0.40;;;24.70;99.90;;;;;;5092697;28;20535;-73
2022/08/20 09:00:45;;;;;;;0.77;0.60;;;24.90;99.90;;;;;;5090781;28;20873;-73
2022/08/20 09:03:19;;;;;;;0.70;0.60;;;25.00;99.90;;;;;;5097048;28;20549;-74
2022/08/20 09:05:48;;;;;;;0.70;0.53;;;24.70;99.90;;;;;;5094254;28;20461;-73
2022/08/20 09:08:18;;;;;;;1.20;0.57;;;24.80;99.90;;;;;;5097048;28;20450;-73
2022/08/20 09:10:45;;;;;;;0.77;0.60;;;24.60;99.90;;;;;;5105706;28;20484;-73
2022/08/20 09:13:13;;;;;;;0.90;0.70;;;24.50;99.90;;;;;;5118945;28;20444;-72
2022/08/20 09:15:41;;;;;;;0.70;0.57;;;24.70;99.90;;;;;;5136913;27;20512;-73
2022/08/20 09:18:08;;;;;;;0.70;0.50;;;24.80;99.90;;;;;;5139741;27;20494;-73
2022/08/20 09:20:35;;;;;;;0.77;0.60;;;24.50;99.90;;;;;;5136547;27;20509;-73
2022/08/20 09:23:05;;;;;;;0.70;0.50;;;24.60;99.90;;;;;;5138168;27;20520;-73
2022/08/20 09:25:32;;;;;;;0.70;0.53;;;24.70;99.90;;;;;;5136237;27;20811;-74
2022/08/20 09:27:59;;;;;;;0.80;0.53;;;24.70;99.90;;;;;;5138211;27;20459;-74
2022/08/20 09:30:26;;;;;;;0.50;0.40;;;24.70;99.90;;;;;;5136895;27;20500;-72
2022/08/20 09:32:55;;;;;;;0.63;0.50;;;24.70;99.90;;;;;;5137298;27;20468;-73
2022/08/20 09:35:22;;;;;;;0.70;0.50;;;24.90;99.90;;;;;;5134855;27;20451;-72
2022/08/20 09:37:50;;;;;;;0.60;0.50;;;25.00;99.90;;;;;;5123626;27;20477;-71
2022/08/20 09:40:18;;;;;;;0.70;0.40;;;25.20;57.50;;;;;;5116201;28;20572;-72
2022/08/20 09:42:45;;;;;;;0.60;0.40;;;25.20;13.30;;;;;;5118588;28;20484;-72
2022/08/20 09:45:13;;;;;;;0.60;0.40;;;25.40;16.70;;;;;;5115612;28;20559;-71
2022/08/20 09:47:41;;;;;;;0.53;0.40;;;25.50;1.00;;;;;;5117475;28;20519;-71
2022/08/20 09:50:10;;;;;;;0.60;0.43;;;25.20;1.00;;;;;;5117219;28;20527;-72
2022/08/20 09:52:41;;;;;;;0.50;0.30;;;25.20;1.00;;;;;;5118872;28;20896;-72
2022/08/20 09:55:18;;;;;;;1.60;0.67;;;25.10;1.00;;;;;;5115401;28;20487;-72
2022/08/20 09:57:46;;;;;;;2.03;0.50;;;25.30;1.00;;;;;;5119223;28;20487;-73
2022/08/20 10:00:14;;;;;;;0.70;0.40;;;25.30;1.00;;;;;;5117634;28;20951;-72
2022/08/20 10:02:41;;;;;;;0.40;0.40;;;25.40;1.00;;;;;;5119056;28;20492;-71
2022/08/20 10:05:10;;;;;;;0.53;0.30;;;25.50;1.00;;;;;;5116071;28;20453;-72
2022/08/20 10:07:39;;;;;;;0.50;0.30;;;25.50;1.00;;;;;;5115127;28;20464;-72
2022/08/20 10:10:10;;;;;;;2.30;0.40;;;25.10;1.00;;;;;;5111315;28;20559;-74
2022/08/20 10:12:37;;;;;;;0.50;0.30;;;25.00;1.00;;;;;;5106485;28;20520;-73
2022/08/20 10:15:06;;;;;;;2.87;0.40;;;25.10;1.00;;;;;;5106648;28;20485;-74
2022/08/20 10:17:33;;;;;;;0.80;0.40;;;25.20;1.00;;;;;;5095033;28;20531;-75
2022/08/20 10:20:00;;;;;;;1.20;0.40;;;25.40;1.00;;;;;;5092126;28;20530;-72
2022/08/20 10:22:31;;;;;;;0.60;0.33;;;25.40;1.00;;;;;;5095681;28;20294;-73
2022/08/20 10:24:58;;;;;;;0.60;0.40;;;25.50;1.00;;;;;;5092536;28;20456;-73
2022/08/20 10:27:25;;;;;;;0.60;0.40;;;25.50;1.00;;;;;;5096729;28;20450;-73
2022/08/20 10:29:56;;;;;;;1.53;0.37;;;25.30;1.00;;;;;;5091232;28;20481;-73
2022/08/20 10:32:23;;;;;;;0.50;0.40;;;25.10;1.00;;;;;;5094170;28;20446;-72
2022/08/20 10:34:50;;;;;;;0.40;0.20;;;24.90;1.00;;;;;;5090120;28;20980;-72
2022/08/20 10:37:20;;;;;;;0.50;0.33;;;24.80;18.90;;;;;;5094479;28;20826;-71
2022/08/20 10:39:49;;;;;;;0.40;0.30;;;25.10;22.70;;;;;;5085509;28;20527;-73
2022/08/20 10:42:16;;;;;;;0.93;0.30;;;25.30;1.00;;;;;;5086856;28;20913;-72
2022/08/20 10:44:45;;;;;;;0.40;0.20;;;25.20;1.00;;;;;;5089829;28;20453;-72
2022/08/20 10:47:17;;;;;;;0.30;0.20;;;25.30;1.00;;;;;;5096142;28;21023;-72
2022/08/20 10:49:45;;;;;;;0.50;0.20;;;25.50;1.00;;;;;;5093207;28;20445;-72
2022/08/20 10:52:15;;;;;;;0.30;0.20;;;25.70;1.00;;;;;;5095230;28;20473;-72
2022/08/20 10:54:42;;;;;;;0.40;0.30;;;25.80;1.00;;;;;;5093786;28;20458;-71
2022/08/20 10:57:15;;;;;;;0.43;0.20;;;25.70;1.00;;;;;;5096394;28;21020;-73
2022/08/20 10:59:44;;;;;;;0.40;0.30;;;25.50;1.00;;;;;;5093717;28;20484;-72
2022/08/20 11:02:11;;;;;;;0.40;0.20;;;25.30;1.00;;;;;;5096409;28;20518;-71
2022/08/20 11:04:39;;;;;;;0.47;0.23;;;25.10;1.00;;;;;;5092075;28;20509;-71
2022/08/20 11:07:25;;;;;;;0.30;0.20;;;24.90;1.00;;;;;;5095058;28;20915;-71
2022/08/20 11:09:52;;;;;;;0.70;0.20;;;24.80;1.00;;;;;;5092828;28;20972;-71
2022/08/20 11:12:22;;;;;;;0.40;0.30;;;24.90;1.00;;;;;;5095422;28;20551;-71
2022/08/20 11:14:50;;;;;;;0.40;0.20;;;25.00;1.00;;;;;;5072676;28;20482;-71
2022/08/20 11:17:20;;;;;;;1.10;0.20;;;25.00;1.00;;;;;;5092775;28;20949;-71
2022/08/20 11:19:47;;;;;;;0.30;0.20;;;25.30;1.00;;;;;;5093684;28;20492;-72
2022/08/20 11:22:14;;;;;;;0.40;0.20;;;25.50;1.00;;;;;;5095836;28;20441;-71
2022/08/20 11:24:41;;;;;;;1.03;0.20;;;25.60;1.00;;;;;;5093380;28;20500;-71
2022/08/20 11:27:09;;;;;;;0.30;0.20;;;25.70;1.00;;;;;;5095771;28;20449;-72
2022/08/20 11:29:38;;;;;;;0.40;0.20;;;25.80;1.00;;;;;;5092220;28;20729;-71
2022/08/20 11:32:06;;;;;;;0.40;0.20;;;25.80;1.00;;;;;;5089306;28;20442;-72
2022/08/20 11:34:33;;;;;;;0.50;0.20;;;25.70;1.00;;;;;;5092137;28;20537;-72
2022/08/20 11:37:00;;;;;;;0.40;0.10;;;25.60;1.00;;;;;;5096281;28;20446;-70
2022/08/20 11:39:27;;;;;;;0.47;0.20;;;25.40;1.00;;;;;;5092571;28;20517;-71
2022/08/20 11:41:54;;;;;;;0.50;0.30;;;25.40;1.00;;;;;;5095161;28;21102;-70
2022/08/20 11:44:23;;;;;;;0.30;0.20;;;25.50;1.00;;;;;;5090466;28;20441;-71
2022/08/20 11:46:51;;;;;;;0.50;0.20;;;25.30;1.00;;;;;;5094252;28;21055;-71
2022/08/20 11:49:18;;;;;;;0.30;0.20;;;25.50;1.00;;;;;;5090851;28;20500;-71
2022/08/20 11:51:45;;;;;;;0.60;0.27;;;25.30;1.00;;;;;;5093339;28;20478;-71
2022/08/20 11:54:12;;;;;;;0.30;0.10;;;25.20;1.00;;;;;;5094424;28;20500;-71
2022/08/20 11:56:39;;;;;;;0.63;0.20;;;25.10;1.00;;;;;;5086701;28;20457;-72
2022/08/20 11:59:06;;;;;;;0.30;0.10;;;24.90;1.00;;;;;;5091684;28;20881;-71
2022/08/20 12:01:33;;;;;;;0.43;0.20;;;24.60;1.00;;;;;;5091656;28;20437;-72
2022/08/20 12:04:01;;;;;;;0.30;0.20;;;24.60;1.00;;;;;;5093455;28;20507;-71
2022/08/20 12:06:29;;;;;;;0.40;0.20;;;24.70;1.00;;;;;;5092767;28;20743;-71
2022/08/20 12:08:56;;;;;;;0.30;0.20;;;24.80;1.00;;;;;;5093508;28;20446;-72
2022/08/20 12:11:23;;;;;;;0.30;0.20;;;24.60;1.00;;;;;;5106970;28;20538;-72
2022/08/20 12:13:50;;;;;;;3.10;0.20;;;24.60;1.00;;;;;;5115260;28;20479;-71
2022/08/20 12:16:18;;;;;;;0.30;0.10;;;24.40;1.00;;;;;;5111796;28;20485;-71
2022/08/20 12:18:46;;;;;;;0.63;0.20;;;24.40;1.00;;;;;;5101026;28;20442;-71
2022/08/20 12:21:15;;;;;;;0.30;0.20;;;24.60;1.00;;;;;;5096496;28;21119;-69
2022/08/20 12:23:42;;;;;;;0.33;0.20;;;24.60;1.00;;;;;;5107346;28;20933;-71
2022/08/20 12:26:09;;;;;;;0.40;0.20;;;24.80;1.00;;;;;;5104474;28;20555;-71
2022/08/20 12:28:36;;;;;;;0.30;0.20;;;25.00;7.90;;;;;;5099800;28;20504;-71
2022/08/20 12:31:04;;;;;;;0.30;0.20;;;25.00;16.40;;;;;;5104529;28;20532;-71
2022/08/20 12:33:31;;;;;;;0.47;0.30;;;25.00;3.30;;;;;;5113264;28;20979;-68
2022/08/20 12:35:59;;;;;;;0.40;0.20;;;25.20;1.00;;;;;;5097985;28;20460;-72
2022/08/20 12:38:27;;;;;;;0.40;0.27;;;25.50;1.00;;;;;;5114363;28;20480;-71
2022/08/20 12:40:54;;;;;;;0.40;0.20;;;25.50;1.00;;;;;;5096366;28;20481;-71
2022/08/20 12:43:21;;;;;;;0.43;0.20;;;25.20;1.00;;;;;;5094915;28;20477;-71
2022/08/20 12:45:48;;;;;;;0.33;0.20;;;25.50;1.00;;;;;;5105877;28;20497;-70
2022/08/20 12:48:15;;;;;;;0.40;0.20;;;25.80;1.00;;;;;;5113180;28;20836;-70
2022/08/20 12:50:44;;;;;;;1.23;0.20;;;25.90;1.00;;;;;;5107585;28;20519;-71
2022/08/20 12:53:11;;;;;;;0.40;0.20;;;26.00;1.00;;;;;;5114423;28;20475;-71
2022/08/20 12:55:40;;;;;;;0.40;0.20;;;25.90;1.00;;;;;;5110598;28;20506;-71
2022/08/20 12:58:09;;;;;;;0.50;0.20;;;25.70;1.00;;;;;;5094527;28;20530;-71
2022/08/20 13:00:40;;;;;;;0.40;0.20;;;25.40;1.00;;;;;;5109553;28;20485;-71
2022/08/20 13:03:07;;;;;;;0.40;0.20;;;24.90;1.00;;;;;;5125926;28;20515;-71
2022/08/20 13:05:35;;;;;;;0.43;0.23;;;24.60;1.00;;;;;;5111521;28;20468;-70
2022/08/20 13:08:06;;;;;;;0.40;0.30;;;24.70;1.00;;;;;;5113631;28;20445;-70